Time;durP1;ratioP1;P1;durP2;ratioP2;P2;SDS_P1;SDS_P2;PMS_P1;PMS_P2;Temp;Humidity;BMP_temperature;BMP_pressure;BME280_temperature;BME280_humidity;BME280_pressure;Samples;Min_cycle;Max_cycle;Signal;HPM_P1;HPM_P2
2021/09/14 04:31:56;;;;;;;8.00;7.20;;;14.50;99.90;;;;;;5549843;22;20582;-77
2021/09/14 04:34:22;;;;;;;17.30;8.90;;;14.50;99.90;;;;;;5030638;28;20979;-77
2021/09/14 04:36:48;;;;;;;11.10;9.93;;;14.50;99.90;;;;;;5030152;28;20217;-77
2021/09/14 04:39:14;;;;;;;8.00;7.30;;;14.50;99.90;;;;;;5050006;28;20205;-77
2021/09/14 04:41:40;;;;;;;9.30;7.77;;;14.50;99.90;;;;;;5051335;28;20204;-77
2021/09/14 04:44:05;;;;;;;9.57;8.47;;;14.50;99.90;;;;;;5051471;28;20408;-77
2021/09/14 04:46:31;;;;;;;11.10;10.00;;;14.50;99.90;;;;;;5051911;28;20669;-77
2021/09/14 04:48:57;;;;;;;12.93;10.17;;;14.50;99.90;;;;;;5051876;28;20249;-77
2021/09/14 04:51:22;;;;;;;9.77;8.77;;;14.40;99.90;;;;;;5051769;28;20189;-77
2021/09/14 04:53:48;;;;;;;9.73;8.70;;;14.40;99.90;;;;;;5052532;28;20251;-77
2021/09/14 04:56:14;;;;;;;8.50;7.63;;;14.40;99.90;;;;;;5055220;28;20640;-77
2021/09/14 04:58:41;;;;;;;8.70;7.90;;;14.40;99.90;;;;;;5054413;28;20310;-77
2021/09/14 05:01:07;;;;;;;12.90;8.57;;;14.40;99.90;;;;;;5055027;28;20265;-77
2021/09/14 05:03:33;;;;;;;11.53;9.10;;;14.40;99.90;;;;;;5055514;28;20446;-77
2021/09/14 05:05:58;;;;;;;10.57;8.47;;;14.40;99.90;;;;;;5055874;28;20452;-77
2021/09/14 05:08:24;;;;;;;10.03;8.47;;;14.40;99.90;;;;;;5055137;28;20213;-77
2021/09/14 05:10:51;;;;;;;11.43;8.07;;;14.40;99.90;;;;;;5055423;28;20203;-78
2021/09/14 05:13:17;;;;;;;11.53;8.17;;;14.40;99.90;;;;;;5037341;28;20638;-77
2021/09/14 05:15:42;;;;;;;10.07;8.20;;;14.40;99.90;;;;;;5055433;28;20439;-78
2021/09/14 05:18:10;;;;;;;11.00;9.90;;;14.40;99.90;;;;;;5054727;28;20185;-78
2021/09/14 05:20:37;;;;;;;10.23;7.60;;;14.40;99.90;;;;;;5055433;28;20256;-78
2021/09/14 05:23:11;;;;;;;14.43;8.80;;;14.40;99.90;;;;;;5055320;28;20410;-78
2021/09/14 05:25:38;;;;;;;19.13;9.20;;;14.40;99.90;;;;;;5054933;28;20416;-78
2021/09/14 05:28:04;;;;;;;12.43;9.00;;;14.50;99.90;;;;;;5040055;28;20420;-78
2021/09/14 05:30:30;;;;;;;8.50;7.27;;;14.50;99.90;;;;;;5034822;28;20478;-77
2021/09/14 05:32:55;;;;;;;15.07;8.90;;;14.50;99.90;;;;;;5034876;28;20188;-78
2021/09/14 05:35:29;;;;;;;11.80;8.90;;;14.50;99.90;;;;;;5035743;28;20185;-78
2021/09/14 05:37:55;;;;;;;13.97;8.77;;;14.60;99.90;;;;;;5016778;28;20182;-77
2021/09/14 05:40:21;;;;;;;13.63;8.27;;;14.60;99.90;;;;;;5033908;28;20424;-77
2021/09/14 05:42:46;;;;;;;10.70;8.00;;;14.70;99.90;;;;;;5034442;28;20642;-77
2021/09/14 05:45:12;;;;;;;11.10;8.57;;;14.80;99.90;;;;;;5034129;28;20200;-77
2021/09/14 05:47:37;;;;;;;10.87;8.50;;;14.80;99.90;;;;;;5034210;28;20206;-78
2021/09/14 05:50:04;;;;;;;11.63;8.70;;;14.90;99.90;;;;;;5034012;28;20234;-78
2021/09/14 05:52:29;;;;;;;10.87;8.43;;;15.00;99.90;;;;;;5034366;28;20273;-77
2021/09/14 05:54:55;;;;;;;11.03;8.47;;;15.10;99.90;;;;;;5033710;28;20495;-77
2021/09/14 05:57:20;;;;;;;10.70;8.80;;;15.20;99.90;;;;;;5034396;28;20186;-78
2021/09/14 05:59:47;;;;;;;11.13;8.90;;;15.40;99.90;;;;;;5034153;28;20174;-78
2021/09/14 06:02:12;;;;;;;16.63;8.43;;;15.60;99.90;;;;;;5035005;28;20267;-78
2021/09/14 06:04:38;;;;;;;13.80;9.03;;;15.90;99.90;;;;;;5034314;28;20421;-76
2021/09/14 06:07:04;;;;;;;10.60;8.03;;;16.30;99.90;;;;;;5034347;28;20194;-76
2021/09/14 06:09:29;;;;;;;13.33;7.83;;;16.90;99.90;;;;;;5016225;28;20232;-76
2021/09/14 06:11:55;;;;;;;10.10;8.40;;;17.30;99.90;;;;;;5034094;28;20428;-77
2021/09/14 06:14:20;;;;;;;9.53;7.80;;;17.80;99.90;;;;;;5034449;28;20182;-77
2021/09/14 06:16:46;;;;;;;11.40;8.10;;;18.20;99.90;;;;;;5032974;28;20213;-77
2021/09/14 06:19:12;;;;;;;12.97;8.47;;;18.60;99.90;;;;;;5033135;28;20300;-77
2021/09/14 06:21:38;;;;;;;8.13;7.47;;;19.10;99.90;;;;;;5032901;28;20276;-77
2021/09/14 06:24:06;;;;;;;14.17;8.13;;;19.50;99.90;;;;;;5033062;28;20500;-77
2021/09/14 06:26:35;;;;;;;8.43;7.53;;;19.90;99.90;;;;;;5032876;28;20697;-77
2021/09/14 06:29:01;;;;;;;11.00;7.20;;;20.30;99.90;;;;;;5033234;28;20800;-77
2021/09/14 06:31:26;;;;;;;11.97;7.20;;;20.50;99.90;;;;;;5033226;28;20921;-78
2021/09/14 06:33:52;;;;;;;6.40;5.80;;;21.00;99.90;;;;;;5033465;28;20654;-78
2021/09/14 06:36:17;;;;;;;7.97;7.37;;;21.30;99.90;;;;;;5033084;28;20182;-78
2021/09/14 06:38:43;;;;;;;9.40;7.23;;;21.70;99.90;;;;;;5032258;28;20182;-78
2021/09/14 06:41:09;;;;;;;9.97;7.27;;;22.00;99.90;;;;;;5033302;28;20283;-78
2021/09/14 06:43:34;;;;;;;10.20;7.40;;;22.20;99.90;;;;;;5033268;28;20185;-78
2021/09/14 06:46:00;;;;;;;9.30;7.57;;;22.30;99.90;;;;;;5033426;28;20593;-78
2021/09/14 06:48:25;;;;;;;8.57;7.30;;;22.50;99.90;;;;;;5032689;28;20197;-78
2021/09/14 06:50:51;;;;;;;8.27;7.03;;;22.80;99.90;;;;;;5034091;28;20189;-78
2021/09/14 06:53:17;;;;;;;7.40;6.70;;;23.10;99.90;;;;;;5032781;28;20249;-78
2021/09/14 06:55:43;;;;;;;11.83;6.70;;;23.10;99.90;;;;;;5032906;28;20205;-78
2021/09/14 06:58:09;;;;;;;18.33;7.40;;;23.10;99.90;;;;;;5033267;28;20482;-78
2021/09/14 07:00:36;;;;;;;9.47;7.13;;;23.00;99.90;;;;;;5015774;28;20754;-78
2021/09/14 07:03:02;;;;;;;10.13;7.23;;;23.20;99.90;;;;;;5033805;28;20233;-78
2021/09/14 07:05:28;;;;;;;7.13;6.50;;;23.20;99.90;;;;;;5029695;28;20917;-78
2021/09/14 07:07:54;;;;;;;9.57;7.23;;;23.40;99.90;;;;;;5032138;28;20451;-78
2021/09/14 07:10:20;;;;;;;8.30;7.17;;;23.50;99.90;;;;;;5031882;28;20166;-78
2021/09/14 07:12:45;;;;;;;11.37;7.30;;;23.50;99.90;;;;;;5032020;28;20186;-78
2021/09/14 07:15:11;;;;;;;7.87;6.87;;;23.70;99.90;;;;;;5014362;28;20638;-78
2021/09/14 07:17:39;;;;;;;9.10;8.20;;;23.70;99.90;;;;;;5013821;28;20601;-79
2021/09/14 07:20:07;;;;;;;8.60;6.40;;;23.70;99.90;;;;;;5014462;28;20181;-79
2021/09/14 07:22:33;;;;;;;19.17;7.10;;;23.90;99.90;;;;;;5031957;28;20432;-81
2021/09/14 07:24:58;;;;;;;10.40;6.97;;;24.20;99.90;;;;;;5032618;28;20500;-80
2021/09/14 07:27:24;;;;;;;6.97;6.03;;;24.20;99.90;;;;;;5032291;28;21026;-79
2021/09/14 07:29:51;;;;;;;9.37;6.40;;;24.30;99.90;;;;;;5033314;28;20210;-78
2021/09/14 07:32:17;;;;;;;8.77;6.90;;;24.40;99.90;;;;;;5015456;28;20237;-77
2021/09/14 07:34:42;;;;;;;9.30;7.20;;;24.40;99.90;;;;;;5033181;28;20436;-80
2021/09/14 07:37:08;;;;;;;8.30;7.37;;;24.30;99.90;;;;;;5031991;28;20173;-81
2021/09/14 07:39:33;;;;;;;10.60;8.70;;;24.50;99.90;;;;;;5032596;28;20603;-81
2021/09/14 07:41:59;;;;;;;10.07;8.60;;;24.70;99.90;;;;;;5032105;28;20193;-81
2021/09/14 07:44:25;;;;;;;8.63;7.10;;;24.70;99.90;;;;;;5032436;28;20174;-81
2021/09/14 07:46:50;;;;;;;8.50;6.90;;;24.80;99.90;;;;;;5032465;28;20198;-81
2021/09/14 07:49:16;;;;;;;8.93;7.20;;;24.80;99.90;;;;;;5032181;28;20181;-81
2021/09/14 07:51:42;;;;;;;13.20;7.80;;;24.90;99.90;;;;;;5032936;28;20650;-82
2021/09/14 07:54:08;;;;;;;9.07;8.07;;;25.10;99.90;;;;;;5032155;28;20498;-81
2021/09/14 07:56:33;;;;;;;13.10;8.50;;;25.30;99.90;;;;;;5032487;28;20675;-81
2021/09/14 07:58:59;;;;;;;16.00;8.33;;;25.60;99.90;;;;;;5032695;28;20186;-81
2021/09/14 08:01:24;;;;;;;15.23;8.10;;;25.80;99.90;;;;;;5033647;28;20201;-81
2021/09/14 08:03:50;;;;;;;11.97;7.47;;;26.00;99.90;;;;;;5034545;28;20178;-80
2021/09/14 08:06:15;;;;;;;12.47;7.17;;;26.20;99.90;;;;;;5033172;28;20193;-81
2021/09/14 08:08:41;;;;;;;18.73;7.70;;;26.50;99.90;;;;;;5034248;28;20182;-81
2021/09/14 08:11:07;;;;;;;10.10;6.93;;;26.60;99.90;;;;;;5032066;28;20213;-81
2021/09/14 08:13:32;;;;;;;9.20;8.27;;;26.60;99.90;;;;;;5014075;28;20216;-81
2021/09/14 08:15:58;;;;;;;8.40;7.23;;;26.40;99.90;;;;;;5032163;28;20316;-82
2021/09/14 08:18:23;;;;;;;7.73;6.97;;;26.40;99.90;;;;;;5033066;28;20181;-81
2021/09/14 08:20:49;;;;;;;10.43;6.37;;;26.50;99.90;;;;;;5031926;28;20267;-82
2021/09/14 08:23:14;;;;;;;7.63;6.77;;;26.70;99.90;;;;;;5033775;28;20190;-82
2021/09/14 08:25:41;;;;;;;12.00;7.00;;;27.10;99.90;;;;;;5033172;28;20196;-83
2021/09/14 08:28:06;;;;;;;14.17;6.30;;;27.40;99.90;;;;;;5034330;28;20269;-83
2021/09/14 08:30:32;;;;;;;13.40;7.30;;;27.90;99.90;;;;;;5031357;28;20476;-83
2021/09/14 08:32:58;;;;;;;6.90;5.40;;;28.10;99.90;;;;;;5037802;28;20190;-82
2021/09/14 08:35:24;;;;;;;6.03;4.93;;;28.10;99.90;;;;;;5037266;28;20533;-83
2021/09/14 08:37:49;;;;;;;15.93;6.80;;;28.30;99.90;;;;;;5031483;28;20178;-83
2021/09/14 08:40:15;;;;;;;6.33;5.63;;;28.30;99.90;;;;;;5021214;28;20187;-83
2021/09/14 08:42:41;;;;;;;9.37;6.80;;;28.40;99.90;;;;;;5017431;28;20201;-83
2021/09/14 08:45:09;;;;;;;6.90;6.27;;;28.80;99.90;;;;;;5017736;28;20205;-83
2021/09/14 08:47:37;;;;;;;7.60;5.20;;;29.20;99.90;;;;;;5020126;28;20309;-83
2021/09/14 08:50:07;;;;;;;9.80;5.43;;;29.40;99.90;;;;;;5021072;28;20925;-83
2021/09/14 08:52:33;;;;;;;7.70;4.30;;;29.50;99.90;;;;;;5019884;28;20425;-83
2021/09/14 08:54:58;;;;;;;4.43;4.03;;;29.50;99.90;;;;;;5019868;28;20406;-84
2021/09/14 08:57:24;;;;;;;4.93;4.43;;;29.60;99.90;;;;;;5023158;28;20424;-84
2021/09/14 08:59:49;;;;;;;6.10;4.27;;;29.90;99.90;;;;;;5020083;28;20295;-83
2021/09/14 09:02:17;;;;;;;4.67;4.27;;;30.10;99.90;;;;;;5038265;28;20205;-83
2021/09/14 09:05:07;;;;;;;5.17;4.07;;;29.80;99.90;;;;;;5041423;28;20176;-83
2021/09/14 09:07:37;;;;;;;4.93;4.00;;;29.60;99.90;;;;;;5040826;28;20986;-84
2021/09/14 09:10:07;;;;;;;3.70;3.50;;;29.80;99.90;;;;;;5023082;28;20519;-84
2021/09/14 09:12:36;;;;;;;4.27;3.97;;;30.10;99.90;;;;;;5018289;28;20444;-83
2021/09/14 09:15:02;;;;;;;5.03;4.60;;;30.50;99.90;;;;;;5036709;28;20439;-83
2021/09/14 09:17:28;;;;;;;4.53;4.10;;;30.60;99.90;;;;;;5037461;28;21000;-84
2021/09/14 09:19:56;;;;;;;4.50;4.03;;;31.10;99.90;;;;;;5037901;28;20451;-83
2021/09/14 09:22:24;;;;;;;4.37;4.00;;;31.10;99.90;;;;;;5038364;28;20239;-83
2021/09/14 09:24:52;;;;;;;4.87;4.53;;;31.20;99.90;;;;;;5035857;28;20417;-80
2021/09/14 09:27:21;;;;;;;6.43;4.20;;;31.30;99.90;;;;;;5018601;28;20526;-81
2021/09/14 09:30:09;;;;;;;4.83;4.33;;;31.30;99.90;;;;;;5020515;28;20412;-81
2021/09/14 09:32:44;;;;;;;5.53;4.00;;;31.20;99.90;;;;;;5057747;28;20456;-81
2021/09/14 09:35:11;;;;;;;5.73;4.27;;;30.70;99.90;;;;;;5055544;28;20439;-81
2021/09/14 09:37:37;;;;;;;7.33;4.60;;;30.70;99.90;;;;;;5056235;28;20805;-81
2021/09/14 09:40:02;;;;;;;4.23;3.83;;;31.00;99.90;;;;;;5055509;28;20415;-80
2021/09/14 09:42:31;;;;;;;4.70;4.30;;;31.30;99.90;;;;;;5038769;28;20368;-80
2021/09/14 09:44:59;;;;;;;5.27;4.10;;;31.20;99.90;;;;;;5056310;28;20415;-80
2021/09/14 09:47:25;;;;;;;4.67;4.37;;;31.40;99.90;;;;;;5056137;28;20467;-80
2021/09/14 09:49:52;;;;;;;4.80;4.40;;;31.40;99.90;;;;;;5056101;28;20498;-80
2021/09/14 09:52:18;;;;;;;3.93;3.33;;;31.90;99.90;;;;;;5051046;28;20444;-79
2021/09/14 09:54:45;;;;;;;4.30;3.87;;;32.10;99.90;;;;;;5044683;28;20421;-80
2021/09/14 09:57:11;;;;;;;5.53;4.20;;;32.40;99.90;;;;;;5038938;28;20417;-80
2021/09/14 09:59:37;;;;;;;4.50;4.10;;;32.60;99.90;;;;;;5040970;28;20925;-79
2021/09/14 10:02:16;;;;;;;4.70;4.30;;;32.80;99.90;;;;;;5041124;28;20587;-80
2021/09/14 10:05:00;;;;;;;4.43;4.03;;;32.90;99.90;;;;;;5036715;28;20188;-79
2021/09/14 10:07:28;;;;;;;3.50;3.30;;;32.80;99.90;;;;;;5039003;28;20469;-80
2021/09/14 10:09:56;;;;;;;3.93;3.73;;;32.50;99.90;;;;;;5042016;28;20420;-80
2021/09/14 10:12:30;;;;;;;3.70;3.50;;;32.70;99.90;;;;;;5042208;28;20496;-80
2021/09/14 10:15:11;;;;;;;4.07;3.63;;;33.20;99.90;;;;;;5043804;28;20434;-80
2021/09/14 10:17:53;;;;;;;4.67;4.30;;;33.50;99.90;;;;;;5046078;28;20439;-79
2021/09/14 10:20:21;;;;;;;4.27;3.97;;;33.10;99.90;;;;;;5044711;28;20448;-80
2021/09/14 10:23:01;;;;;;;6.20;3.60;;;33.10;99.90;;;;;;5043482;28;20416;-80
2021/09/14 10:25:28;;;;;;;4.70;4.30;;;33.00;99.90;;;;;;5037641;28;20909;-80
2021/09/14 10:28:05;;;;;;;4.50;4.20;;;33.10;99.90;;;;;;5039283;28;20460;-79
2021/09/14 10:30:33;;;;;;;4.47;3.50;;;32.90;99.90;;;;;;5040815;28;20459;-80
2021/09/14 10:33:00;;;;;;;5.53;3.70;;;32.80;99.90;;;;;;5039868;28;20459;-81
2021/09/14 10:35:31;;;;;;;5.80;3.73;;;32.70;99.90;;;;;;5040034;28;20861;-78
2021/09/14 10:38:11;;;;;;;5.07;4.13;;;32.70;99.90;;;;;;5040036;28;20417;-79
2021/09/14 10:40:46;;;;;;;3.70;3.50;;;32.40;99.90;;;;;;5023616;28;20451;-80
2021/09/14 10:43:33;;;;;;;4.03;3.63;;;32.10;99.90;;;;;;5039559;28;20412;-80
2021/09/14 10:46:01;;;;;;;3.80;3.60;;;32.30;99.90;;;;;;5039610;28;20456;-80
2021/09/14 10:48:32;;;;;;;4.37;4.10;;;32.50;99.90;;;;;;5037412;28;20416;-80
2021/09/14 10:51:12;;;;;;;6.00;3.80;;;32.30;99.90;;;;;;5040000;28;20444;-81
2021/09/14 10:53:40;;;;;;;4.67;4.23;;;32.60;99.90;;;;;;5038303;28;20423;-81
2021/09/14 10:56:10;;;;;;;5.03;4.17;;;32.60;99.90;;;;;;5040147;28;20440;-81
2021/09/14 10:59:00;;;;;;;4.73;4.23;;;32.50;99.90;;;;;;5039425;28;20420;-80
2021/09/14 11:01:25;;;;;;;4.67;4.17;;;32.30;99.90;;;;;;5032376;28;20456;-80
2021/09/14 11:04:01;;;;;;;5.17;4.13;;;32.20;99.90;;;;;;5039522;28;20535;-80
2021/09/14 11:06:28;;;;;;;5.00;4.50;;;32.30;99.90;;;;;;5038032;28;20204;-80
2021/09/14 11:08:57;;;;;;;5.17;4.80;;;31.60;99.90;;;;;;5039649;28;20421;-81
2021/09/14 11:11:23;;;;;;;6.40;4.33;;;31.70;99.90;;;;;;5041250;28;20453;-81
2021/09/14 11:13:48;;;;;;;4.50;4.17;;;31.60;99.90;;;;;;5039543;28;20405;-81
2021/09/14 11:16:16;;;;;;;4.40;4.00;;;31.70;99.90;;;;;;5038023;28;20174;-80
2021/09/14 11:18:42;;;;;;;5.33;4.53;;;31.60;99.90;;;;;;5038854;28;20237;-81
2021/09/14 11:21:13;;;;;;;5.90;4.87;;;31.50;99.90;;;;;;5037940;28;20429;-80
2021/09/14 11:23:41;;;;;;;5.57;5.07;;;31.70;99.90;;;;;;5040861;28;20842;-81
2021/09/14 11:26:12;;;;;;;5.07;4.67;;;31.20;99.90;;;;;;5042325;28;20444;-81
2021/09/14 11:28:39;;;;;;;5.63;4.40;;;31.10;99.90;;;;;;5037814;28;20888;-81
2021/09/14 11:31:11;;;;;;;4.27;3.97;;;30.90;99.90;;;;;;5045023;28;20509;-78
2021/09/14 11:33:41;;;;;;;5.70;5.00;;;31.20;99.90;;;;;;5053935;28;20752;-78
2021/09/14 11:36:10;;;;;;;5.93;4.80;;;31.10;99.90;;;;;;5053950;28;20419;-78
2021/09/14 11:38:37;;;;;;;5.73;3.53;;;31.30;99.90;;;;;;5053511;28;20499;-78
2021/09/14 11:41:07;;;;;;;4.80;4.13;;;31.30;99.90;;;;;;5053493;28;20455;-78
2021/09/14 11:43:34;;;;;;;10.23;5.00;;;30.70;99.90;;;;;;5053799;28;20557;-78
2021/09/14 11:46:15;;;;;;;3.87;3.67;;;30.40;99.90;;;;;;5053044;28;20512;-78
2021/09/14 11:48:41;;;;;;;4.90;4.57;;;30.20;99.90;;;;;;5052823;28;20850;-77
2021/09/14 11:51:12;;;;;;;4.93;4.53;;;29.90;99.90;;;;;;5052564;28;20507;-77
2021/09/14 11:53:40;;;;;;;4.87;4.47;;;29.70;99.90;;;;;;5052439;28;20408;-78
2021/09/14 11:56:17;;;;;;;4.63;4.23;;;29.60;99.90;;;;;;5052269;28;20412;-78
2021/09/14 11:58:44;;;;;;;6.23;3.93;;;29.40;99.90;;;;;;5052071;28;20427;-77
2021/09/14 12:01:11;;;;;;;5.80;5.23;;;29.00;99.90;;;;;;5052015;28;20522;-78
2021/09/14 12:03:51;;;;;;;9.50;5.03;;;29.00;99.90;;;;;;5054473;28;20943;-78
2021/09/14 12:06:33;;;;;;;5.20;4.80;;;28.80;99.90;;;;;;5055779;28;20521;-78
2021/09/14 12:09:01;;;;;;;4.87;4.57;;;28.90;99.90;;;;;;5038464;28;20412;-78
2021/09/14 12:11:35;;;;;;;4.77;4.37;;;29.00;99.90;;;;;;5056280;28;20451;-78
2021/09/14 12:14:06;;;;;;;5.03;4.40;;;28.90;99.90;;;;;;5056312;28;20431;-78
2021/09/14 12:16:37;;;;;;;5.13;4.73;;;28.70;99.90;;;;;;5058638;28;20991;-78
2021/09/14 12:19:03;;;;;;;8.47;5.57;;;28.40;99.90;;;;;;5058264;28;20407;-77
2021/09/14 12:21:29;;;;;;;6.90;4.40;;;28.30;99.90;;;;;;5055575;28;20443;-77
2021/09/14 12:23:56;;;;;;;4.77;4.10;;;28.20;99.90;;;;;;5056192;28;20498;-77
2021/09/14 12:26:37;;;;;;;6.43;4.00;;;28.10;99.90;;;;;;5037568;28;20621;-77
2021/09/14 12:29:04;;;;;;;5.63;5.13;;;28.10;99.90;;;;;;5055893;28;20412;-77
2021/09/14 12:31:31;;;;;;;9.50;4.60;;;28.10;99.90;;;;;;5040810;28;20835;-78
2021/09/14 12:33:56;;;;;;;5.63;5.03;;;28.00;99.90;;;;;;5017813;28;20428;-77
2021/09/14 12:36:22;;;;;;;6.50;5.17;;;28.10;99.90;;;;;;5035242;28;20413;-77
2021/09/14 12:38:48;;;;;;;5.63;5.13;;;28.00;99.90;;;;;;5035155;28;20693;-78
2021/09/14 12:41:15;;;;;;;4.77;4.47;;;27.90;99.90;;;;;;5034856;28;20209;-78
2021/09/14 12:43:41;;;;;;;4.90;4.43;;;28.00;99.90;;;;;;5034779;28;20904;-78
2021/09/14 12:46:07;;;;;;;6.57;5.20;;;28.10;99.90;;;;;;5034638;28;20487;-77
2021/09/14 12:48:32;;;;;;;5.77;5.00;;;28.20;99.90;;;;;;5034656;28;20409;-80
2021/09/14 12:51:00;;;;;;;9.80;4.97;;;28.20;99.90;;;;;;5035476;28;20560;-80
2021/09/14 12:53:26;;;;;;;4.30;4.00;;;28.20;99.90;;;;;;5035633;28;20170;-80
2021/09/14 12:55:52;;;;;;;5.60;5.00;;;28.40;99.90;;;;;;5036107;28;20933;-80
2021/09/14 12:58:18;;;;;;;7.13;4.77;;;28.50;99.90;;;;;;5035518;28;20419;-79
2021/09/14 13:00:43;;;;;;;5.50;4.53;;;28.70;99.90;;;;;;5035543;28;20220;-80
2021/09/14 13:03:09;;;;;;;9.17;5.00;;;28.60;99.90;;;;;;5035253;28;20638;-78
2021/09/14 13:05:35;;;;;;;8.13;4.67;;;28.60;99.90;;;;;;5035682;28;20262;-79
2021/09/14 13:08:01;;;;;;;5.60;4.47;;;28.70;99.90;;;;;;5035897;28;20279;-79
2021/09/14 13:10:27;;;;;;;6.40;5.80;;;28.80;99.90;;;;;;5036088;28;20706;-78
2021/09/14 13:18:22;;;;;;;5.70;4.70;;;29.00;99.90;;;;;;5041380;28;20455;-79
2021/09/14 13:20:48;;;;;;;5.87;4.37;;;29.20;99.90;;;;;;5035622;28;20429;-79
2021/09/14 13:23:13;;;;;;;8.43;5.03;;;29.40;99.90;;;;;;5035824;28;20217;-79
2021/09/14 13:25:40;;;;;;;5.80;5.27;;;29.30;99.90;;;;;;5036062;28;20205;-80
2021/09/14 13:28:05;;;;;;;6.10;5.60;;;29.10;99.90;;;;;;5035999;28;20250;-79
2021/09/14 13:30:31;;;;;;;5.10;4.60;;;28.90;99.90;;;;;;5041729;28;20502;-79
2021/09/14 13:32:57;;;;;;;6.10;5.60;;;28.80;99.90;;;;;;5055471;28;20204;-79
2021/09/14 13:35:22;;;;;;;6.47;5.90;;;28.70;99.90;;;;;;5042145;28;20259;-79
2021/09/14 13:37:48;;;;;;;6.70;5.17;;;28.80;99.90;;;;;;5016985;28;20194;-79
2021/09/14 13:40:14;;;;;;;5.87;4.63;;;28.80;99.90;;;;;;5034056;28;20174;-79
2021/09/14 13:42:39;;;;;;;5.17;4.77;;;28.60;99.90;;;;;;5034634;28;20232;-79
2021/09/14 13:47:50;;;;;;;4.73;4.33;;;28.50;99.90;;;;;;5043355;23;20243;-75
2021/09/14 13:50:15;;;;;;;4.90;4.50;;;28.30;99.90;;;;;;5014775;28;20877;-76
2021/09/14 13:52:41;;;;;;;9.57;5.80;;;28.20;99.90;;;;;;5013886;28;20209;-75
2021/09/14 13:55:07;;;;;;;6.97;5.87;;;28.00;99.90;;;;;;5020970;28;20550;-75
2021/09/14 13:57:32;;;;;;;9.83;5.10;;;27.90;99.90;;;;;;5033088;28;20650;-75
2021/09/14 13:59:58;;;;;;;8.60;5.97;;;27.90;99.90;;;;;;5033033;28;20420;-76
2021/09/14 14:02:23;;;;;;;8.33;7.30;;;27.80;99.90;;;;;;5032925;28;20281;-76
2021/09/14 14:04:49;;;;;;;5.40;4.93;;;27.80;99.90;;;;;;5033148;28;20181;-76
2021/09/14 14:07:15;;;;;;;5.67;5.27;;;27.60;99.90;;;;;;5032532;28;20209;-76
2021/09/14 14:09:40;;;;;;;5.70;5.30;;;27.60;99.90;;;;;;5032970;28;20185;-75
2021/09/14 14:12:06;;;;;;;6.10;5.47;;;27.30;99.90;;;;;;5032740;28;20192;-75
2021/09/14 14:14:31;;;;;;;5.53;5.07;;;27.20;99.90;;;;;;5032878;28;20185;-76
2021/09/14 14:16:57;;;;;;;8.13;4.67;;;27.10;99.90;;;;;;5015019;28;20178;-76
2021/09/14 14:19:22;;;;;;;6.13;5.63;;;27.00;99.90;;;;;;5032815;28;20178;-76
2021/09/14 14:21:48;;;;;;;6.60;6.10;;;27.00;99.90;;;;;;5032791;28;20682;-77
2021/09/14 14:24:13;;;;;;;6.93;5.90;;;26.90;99.90;;;;;;5032751;28;20238;-76
2021/09/14 14:26:39;;;;;;;7.27;5.00;;;26.90;99.90;;;;;;5032160;28;20205;-76
2021/09/14 14:29:04;;;;;;;7.83;5.80;;;27.00;99.90;;;;;;5032609;28;20205;-76
2021/09/14 14:31:30;;;;;;;8.43;5.83;;;27.10;99.90;;;;;;5046730;28;20223;-76
2021/09/14 14:33:55;;;;;;;6.50;5.27;;;27.30;99.90;;;;;;5034707;28;20196;-76
2021/09/14 14:36:21;;;;;;;6.33;5.73;;;27.40;99.90;;;;;;5052547;28;20190;-76
2021/09/14 14:38:47;;;;;;;6.20;5.53;;;27.70;99.90;;;;;;5034373;28;20184;-75
2021/09/14 14:41:13;;;;;;;7.57;5.97;;;28.00;99.90;;;;;;5052144;28;20193;-76
2021/09/14 14:43:39;;;;;;;6.07;5.57;;;28.00;99.90;;;;;;5044620;28;20511;-75
2021/09/14 14:46:05;;;;;;;8.20;6.20;;;28.00;99.90;;;;;;5014444;28;20224;-76
2021/09/14 14:48:32;;;;;;;6.17;5.67;;;27.90;99.90;;;;;;5013562;28;20666;-74
2021/09/14 14:50:58;;;;;;;6.40;5.73;;;27.80;99.90;;;;;;5032489;28;20201;-74
2021/09/14 14:53:24;;;;;;;7.87;6.70;;;27.70;99.90;;;;;;5014389;28;20451;-73
2021/09/14 14:55:49;;;;;;;6.40;5.80;;;27.60;99.90;;;;;;5032120;28;20449;-72
2021/09/14 14:58:15;;;;;;;6.73;5.50;;;27.40;99.90;;;;;;5031814;28;20206;-75
2021/09/14 15:00:43;;;;;;;6.47;5.87;;;27.30;99.90;;;;;;5031916;28;20228;-74
2021/09/14 15:03:09;;;;;;;7.13;5.60;;;27.20;99.90;;;;;;5031916;28;20444;-74
2021/09/14 15:05:34;;;;;;;6.80;6.20;;;27.00;99.90;;;;;;5014380;28;20547;-74
2021/09/14 15:07:59;;;;;;;9.00;6.03;;;26.80;99.90;;;;;;5031509;28;20208;-73
2021/09/14 15:10:25;;;;;;;12.17;5.70;;;26.70;99.90;;;;;;5029766;28;20188;-73
2021/09/14 15:12:52;;;;;;;6.20;5.70;;;26.60;99.90;;;;;;5031106;28;20603;-75
2021/09/14 15:15:17;;;;;;;9.17;6.10;;;26.70;99.90;;;;;;5031628;28;20177;-75
2021/09/14 15:17:43;;;;;;;6.80;5.40;;;26.70;99.90;;;;;;5031689;28;20413;-75
2021/09/14 15:20:10;;;;;;;6.47;5.80;;;26.60;99.90;;;;;;5031753;28;20178;-75
2021/09/14 15:22:39;;;;;;;6.13;5.63;;;26.60;99.90;;;;;;5031592;28;20198;-75
2021/09/14 15:25:04;;;;;;;5.93;5.07;;;26.40;99.90;;;;;;5031566;28;20405;-75
2021/09/14 15:27:30;;;;;;;6.40;5.73;;;26.30;99.90;;;;;;5013903;28;20472;-74
2021/09/14 15:29:58;;;;;;;9.43;6.37;;;26.20;99.90;;;;;;5026522;28;20178;-74
2021/09/14 15:32:23;;;;;;;7.67;6.07;;;26.10;99.90;;;;;;5017216;28;20289;-72
2021/09/14 15:34:49;;;;;;;6.83;6.33;;;26.00;99.90;;;;;;5020331;28;20568;-75
2021/09/14 15:37:15;;;;;;;5.07;4.67;;;25.90;99.90;;;;;;5029683;28;20178;-74
2021/09/14 15:39:43;;;;;;;6.37;5.77;;;25.80;99.90;;;;;;5011036;28;20189;-74
2021/09/14 15:42:10;;;;;;;6.17;5.00;;;25.70;99.90;;;;;;5031011;28;20566;-74
2021/09/14 15:44:35;;;;;;;6.63;6.03;;;25.70;99.90;;;;;;5030974;28;20420;-74
2021/09/14 15:47:01;;;;;;;7.10;5.70;;;25.60;99.90;;;;;;5031014;28;20832;-74
2021/09/14 15:49:26;;;;;;;6.70;6.20;;;25.60;99.90;;;;;;5013587;28;20189;-74
2021/09/14 15:51:53;;;;;;;7.33;6.60;;;25.50;99.90;;;;;;5013635;28;20271;-73
2021/09/14 15:54:19;;;;;;;6.63;5.90;;;25.50;99.90;;;;;;5029972;28;20173;-74
2021/09/14 15:56:45;;;;;;;10.03;6.50;;;25.50;99.90;;;;;;5031280;28;20474;-73
2021/09/14 15:59:10;;;;;;;7.10;6.37;;;25.40;99.90;;;;;;5030983;28;20265;-73
2021/09/14 16:01:36;;;;;;;8.27;5.87;;;25.50;99.90;;;;;;5031192;28;20510;-74
2021/09/14 16:04:12;;;;;;;6.27;5.77;;;25.40;99.90;;;;;;5031169;28;20643;-74
2021/09/14 16:06:39;;;;;;;6.87;6.13;;;25.40;99.90;;;;;;5031216;28;20232;-72
2021/09/14 16:09:08;;;;;;;6.70;6.20;;;25.40;99.90;;;;;;5031265;28;20417;-75
2021/09/14 16:11:34;;;;;;;6.10;5.80;;;25.40;99.90;;;;;;5031138;28;20436;-74
2021/09/14 16:13:59;;;;;;;6.47;5.93;;;25.40;99.90;;;;;;5030935;28;20478;-75
2021/09/14 16:16:25;;;;;;;10.30;5.87;;;25.40;99.90;;;;;;5030631;28;20185;-74
2021/09/14 16:18:50;;;;;;;7.13;6.20;;;25.50;99.90;;;;;;5030484;28;20252;-74
2021/09/14 16:21:16;;;;;;;8.33;5.67;;;25.40;99.90;;;;;;5030832;28;20212;-75
2021/09/14 16:23:41;;;;;;;7.03;6.33;;;25.40;99.90;;;;;;5030960;28;20224;-75
2021/09/14 16:26:07;;;;;;;8.27;6.50;;;25.40;99.90;;;;;;5012015;28;20305;-75
2021/09/14 16:28:32;;;;;;;10.50;6.60;;;25.40;99.90;;;;;;4998541;28;20248;-73
2021/09/14 16:31:01;;;;;;;8.23;6.63;;;25.40;99.90;;;;;;5030679;28;20186;-75
2021/09/14 16:33:27;;;;;;;10.83;6.93;;;25.30;99.90;;;;;;5030622;28;20253;-74
2021/09/14 16:35:54;;;;;;;9.23;6.73;;;25.20;99.90;;;;;;5013250;28;21028;-73
2021/09/14 16:38:20;;;;;;;6.67;6.20;;;25.20;99.90;;;;;;5030713;28;20166;-75
2021/09/14 16:40:45;;;;;;;6.83;6.23;;;25.20;99.90;;;;;;5031144;28;20420;-75
2021/09/14 16:43:12;;;;;;;13.27;9.70;;;25.20;99.90;;;;;;5013309;28;20174;-75
2021/09/14 16:45:37;;;;;;;12.63;8.80;;;25.10;99.90;;;;;;5031085;28;20177;-75
2021/09/14 16:48:03;;;;;;;8.80;6.77;;;24.90;99.90;;;;;;5030501;28;20547;-73
2021/09/14 16:50:29;;;;;;;11.00;8.30;;;24.90;99.90;;;;;;5034169;28;20174;-73
2021/09/14 16:52:54;;;;;;;12.17;6.83;;;24.90;99.90;;;;;;5034681;28;20176;-73
2021/09/14 16:55:20;;;;;;;7.70;6.60;;;24.80;99.90;;;;;;5034176;28;20170;-75
2021/09/14 16:57:45;;;;;;;7.53;6.77;;;24.70;99.90;;;;;;5034312;28;20746;-74
2021/09/14 17:00:14;;;;;;;9.67;8.43;;;24.70;99.90;;;;;;5034075;28;20281;-74
2021/09/14 17:02:40;;;;;;;11.10;7.47;;;24.60;99.90;;;;;;5034192;28;20194;-73
2021/09/14 17:05:09;;;;;;;6.70;6.20;;;24.60;99.90;;;;;;5033430;28;20788;-75
2021/09/14 17:07:42;;;;;;;7.97;7.00;;;24.50;99.90;;;;;;5034182;28;20459;-75
2021/09/14 17:10:09;;;;;;;7.63;6.80;;;24.40;99.90;;;;;;5034034;28;20456;-74
2021/09/14 17:12:34;;;;;;;7.50;6.90;;;24.20;99.90;;;;;;5033977;28;20516;-74
2021/09/14 17:15:00;;;;;;;9.87;7.97;;;24.10;99.90;;;;;;5033983;28;20409;-74
2021/09/14 17:17:25;;;;;;;9.43;8.23;;;24.00;99.90;;;;;;5033704;28;20178;-75
2021/09/14 17:19:51;;;;;;;7.03;6.43;;;23.90;99.90;;;;;;5034052;28;20174;-74
2021/09/14 17:22:16;;;;;;;9.13;7.63;;;23.90;99.90;;;;;;5033761;28;20194;-73
2021/09/14 17:24:42;;;;;;;8.70;6.53;;;23.80;99.90;;;;;;5033899;28;20185;-72